This is the latest recevied weather packets stored in our database for station/object G4ZMG. If no packets are shown the sender has not sent any weather packets the latest 1 day(s).
| Time | Temp. | Humidity | Pressure | Rain* | Wind** | Luminosity | Snow |
|---|---|---|---|---|---|---|---|
| 1778107244 | 7.22° C | 84% | 1014.3 hPa | 0 mm | - | 0 W/m² | - |
| 1778102409 | 7.22° C | 79% | 1014 hPa | 0 mm | - | 0 W/m² | - |
| 1778100644 | 7.78° C | 77% | 1013.7 hPa | 0 mm | - | 0 W/m² | - |
| 1778100041 | 8.33° C | 76% | 1013.7 hPa | 0 mm | - | 0 W/m² | - |
| 1778098223 | 8.33° C | 74% | 1013.5 hPa | 0 mm | - | 0 W/m² | - |
| 1778094046 | 10.56° C | 64% | 1012.8 hPa | 0 mm | - | 23 W/m² | - |
| 1778089245 | 12.22° C | 55% | 1012.3 hPa | 0 mm | - | 98 W/m² | - |
| 1778088025 | 12.22° C | 55% | 1012.4 hPa | 0 mm | - | 102 W/m² | - |
| 1778087406 | 12.78° C | 54% | 1012.3 hPa | 0 mm | - | 109 W/m² | - |
| 1778085621 | 13.33° C | 49% | 1012 hPa | 0 mm | - | 248 W/m² | - |
| 1778083844 | 13.89° C | 50% | 1012.1 hPa | 0 mm | - | 617 W/m² | - |
| 1778083229 | 13.89° C | 50% | 1012.1 hPa | 0 mm | - | 768 W/m² | - |
| 1778082609 | 13.89° C | 50% | 1012.3 hPa | 0 mm | - | 436 W/m² | - |
| 1778080209 | 13.33° C | 50% | 1012.5 hPa | 0 mm | - | 211 W/m² | - |
| 1778079037 | 13.89° C | 55% | 1012.5 hPa | 0 mm | - | 371 W/m² | - |
| 1778077212 | 14.44° C | 49% | 1012.6 hPa | 0 mm | - | 274 W/m² | - |
| 1778073046 | 13.33° C | 54% | 1012.9 hPa | 0 mm | - | 253 W/m² | - |
| 1778071229 | 12.78° C | 58% | 1013.1 hPa | 0 mm | - | 232 W/m² | - |
| 1778067037 | 11.67° C | 63% | 1013.4 hPa | 0 mm | - | 584 W/m² | - |
| 1778064037 | 10.56° C | 65% | 1013.8 hPa | 0 mm | - | 529 W/m² | - |
| 1778063433 | 10° C | 67% | 1013.8 hPa | 0 mm | - | 526 W/m² | - |
| 1778062210 | 9.44° C | 71% | 1013.7 hPa | 0 mm | - | 401 W/m² | - |
| 1778061648 | 8.89° C | 71% | 1013.7 hPa | 0 mm | - | 385 W/m² | - |
| 1778060436 | 8.33° C | 72% | 1013.6 hPa | 0 mm | - | 281 W/m² | - |
| 1778059822 | 8.33° C | 73% | 1013.6 hPa | 0 mm | - | 265 W/m² | - |
* Rain latest hour (hover to see other rain measurements)
** Current wind speed in m/s (hover to see current wind gust speed)